Time;durP1;ratioP1;P1;durP2;ratioP2;P2;SDS_P1;SDS_P2;PMS_P1;PMS_P2;Temp;Humidity;BMP_temperature;BMP_pressure;BME280_temperature;BME280_humidity;BME280_pressure;Samples;Min_cycle;Max_cycle;Signal;HPM_P1;HPM_P2
2021/08/04 00:00:07;;;;;;;;;;;;;;;12.95;56.32;100030.81;5133859;27;19923;-73
2021/08/04 00:02:34;;;;;;;;;;;;;;;12.98;56.53;100042.78;5133992;27;19931;-74
2021/08/04 00:05:01;;;;;;;;;;;;;;;13.11;55.93;100038.28;5133407;27;19924;-73
2021/08/04 00:07:29;;;;;;;;;;;;;;;13.02;56.34;100050.28;5133986;27;19927;-73
2021/08/04 00:09:55;;;;;;;;;;;;;;;13.07;56.62;100039.47;5133806;27;19923;-74
2021/08/04 00:12:22;;;;;;;;;;;;;;;13.01;57.30;100035.53;5133934;27;19923;-74
2021/08/04 00:14:48;;;;;;;;;;;;;;;12.90;56.98;100050.38;5132652;27;19930;-73
2021/08/04 00:17:15;;;;;;;;;;;;;;;12.92;56.88;100049.31;5133927;27;19928;-74
2021/08/04 00:19:43;;;;;;;;;;;;;;;12.94;56.72;100049.19;5133547;27;19923;-74
2021/08/04 00:22:09;;;;;;;;;;;;;;;12.99;55.71;100058.31;5133641;27;19930;-73
2021/08/04 00:24:37;;;;;;;;;;;;;;;13.01;55.90;100051.22;5133324;27;19923;-74
2021/08/04 00:27:04;;;;;;;;;;;;;;;12.88;57.10;100057.50;5133187;27;19924;-74
2021/08/04 00:29:31;;;;;;;;;;;;;;;12.90;55.91;100056.44;5133439;28;19923;-74
2021/08/04 00:31:57;;;;;;;;;;;;;;;12.93;56.62;100057.97;5133212;27;19934;-74
2021/08/04 00:34:24;;;;;;;;;;;;;;;12.85;56.77;100050.72;5133744;28;19930;-74
2021/08/04 00:36:50;;;;;;;;;;;;;;;12.82;57.46;100061.41;5133040;28;19924;-74
2021/08/04 00:39:17;;;;;;;;;;;;;;;12.82;57.73;100062.22;5133261;28;19935;-74
2021/08/04 00:41:45;;;;;;;;;;;;;;;12.80;58.00;100069.34;5133679;28;19930;-74
2021/08/04 00:44:12;;;;;;;;;;;;;;;12.84;57.44;100062.09;5133047;28;19924;-74
2021/08/04 00:46:39;;;;;;;;;;;;;;;12.73;57.65;100073.34;5133542;28;19924;-74
2021/08/04 00:49:06;;;;;;;;;;;;;;;12.77;57.55;100076.56;5133185;28;19923;-74
2021/08/04 00:51:33;;;;;;;;;;;;;;;12.77;57.41;100068.75;5133566;28;19946;-74
2021/08/04 00:54:02;;;;;;;;;;;;;;;12.82;57.54;100071.84;5132826;28;20381;-74
2021/08/04 00:56:29;;;;;;;;;;;;;;;12.73;58.13;100075.94;5133193;28;19923;-74
2021/08/04 00:58:57;;;;;;;;;;;;;;;12.74;58.09;100077.63;5132944;28;20377;-74
2021/08/04 01:01:26;;;;;;;;;;;;;;;12.75;57.40;100068.03;5133102;28;19931;-74
2021/08/04 01:03:54;;;;;;;;;;;;;;;12.72;56.96;100069.09;5132569;28;19923;-74
2021/08/04 01:06:28;;;;;;;;;;;;;;;12.69;57.12;100076.28;5133454;28;19931;-74
2021/08/04 01:08:55;;;;;;;;;;;;;;;12.67;56.61;100084.25;5132728;28;19924;-74
2021/08/04 01:11:24;;;;;;;;;;;;;;;12.61;57.05;100080.31;5133067;28;19923;-74
2021/08/04 01:13:52;;;;;;;;;;;;;;;12.62;56.50;100084.59;5133013;28;19924;-74
2021/08/04 01:16:24;;;;;;;;;;;;;;;12.65;56.16;100086.13;5133031;28;19923;-74
2021/08/04 01:18:54;;;;;;;;;;;;;;;12.70;55.95;100085.81;5132776;28;19923;-74
2021/08/04 01:21:24;;;;;;;;;;;;;;;12.64;55.74;100087.91;5132907;28;19976;-74
2021/08/04 01:23:53;;;;;;;;;;;;;;;12.69;55.69;100095.41;5132675;28;19968;-73
2021/08/04 01:26:29;;;;;;;;;;;;;;;12.63;56.96;100093.25;5133600;27;20293;-74
2021/08/04 01:28:57;;;;;;;;;;;;;;;12.71;55.92;100095.28;5136484;27;19931;-74
2021/08/04 01:31:25;;;;;;;;;;;;;;;12.61;56.63;100095.13;5136926;27;19924;-74
2021/08/04 01:33:53;;;;;;;;;;;;;;;12.59;55.64;100092.66;5136471;27;19923;-74
2021/08/04 01:36:20;;;;;;;;;;;;;;;12.61;55.14;100101.22;5136621;27;19924;-74
2021/08/04 01:38:47;;;;;;;;;;;;;;;12.66;56.05;100094.78;5136733;27;19931;-74
2021/08/04 01:41:16;;;;;;;;;;;;;;;12.56;56.68;100110.28;5136551;27;20311;-74
2021/08/04 01:43:45;;;;;;;;;;;;;;;12.56;56.42;100110.28;5136510;27;19924;-74
2021/08/04 01:46:13;;;;;;;;;;;;;;;12.46;56.63;100111.91;5136435;27;19933;-74
2021/08/04 01:48:40;;;;;;;;;;;;;;;12.49;56.30;100107.31;5136331;27;19924;-74
2021/08/04 01:51:08;;;;;;;;;;;;;;;12.50;55.73;100110.75;5136078;27;20398;-74
2021/08/04 01:53:35;;;;;;;;;;;;;;;12.47;54.82;100117.03;5136644;27;19969;-74
2021/08/04 01:56:02;;;;;;;;;;;;;;;12.52;53.76;100117.53;5136336;27;19924;-74
2021/08/04 01:58:29;;;;;;;;;;;;;;;12.59;53.14;100117.91;5136232;27;19923;-74
2021/08/04 02:00:57;;;;;;;;;;;;;;;12.56;53.51;100126.81;5136178;27;19924;-74
2021/08/04 02:03:24;;;;;;;;;;;;;;;12.58;53.19;100118.84;5136091;27;19930;-74
2021/08/04 02:05:52;;;;;;;;;;;;;;;12.58;53.19;100124.91;5135864;27;20395;-74
2021/08/04 02:08:22;;;;;;;;;;;;;;;12.56;53.37;100144.22;5136248;27;19928;-74
2021/08/04 02:10:53;;;;;;;;;;;;;;;12.62;53.76;100133.34;5135941;27;19928;-74
2021/08/04 02:13:23;;;;;;;;;;;;;;;12.54;54.99;100138.31;5136244;27;19924;-74
2021/08/04 02:15:53;;;;;;;;;;;;;;;12.53;55.18;100139.22;5135633;27;20370;-74
2021/08/04 02:18:25;;;;;;;;;;;;;;;12.56;55.10;100145.06;5136152;27;19930;-74
2021/08/04 02:20:52;;;;;;;;;;;;;;;12.58;55.81;100150.16;5135586;27;19931;-74
2021/08/04 02:23:20;;;;;;;;;;;;;;;12.61;54.58;100157.75;5136055;27;19927;-74
2021/08/04 02:25:49;;;;;;;;;;;;;;;12.60;54.99;100169.97;5135884;27;19963;-75
2021/08/04 02:28:19;;;;;;;;;;;;;;;12.60;54.88;100161.31;5135632;27;19923;-74
2021/08/04 02:30:47;;;;;;;;;;;;;;;12.58;55.33;100171.03;5135928;27;19930;-75
2021/08/04 02:33:13;;;;;;;;;;;;;;;12.66;54.74;100163.47;5135583;27;19923;-75
2021/08/04 02:35:41;;;;;;;;;;;;;;;12.54;55.62;100177.44;5135425;27;20373;-75
2021/08/04 02:38:08;;;;;;;;;;;;;;;12.54;55.37;100170.44;5134741;27;19927;-75
2021/08/04 02:40:35;;;;;;;;;;;;;;;12.59;53.94;100181.38;5135299;27;19931;-75
2021/08/04 02:43:03;;;;;;;;;;;;;;;12.53;54.12;100187.03;5135326;27;19930;-74
2021/08/04 02:45:30;;;;;;;;;;;;;;;12.65;53.69;100187.94;5135602;27;19934;-75
2021/08/04 02:47:56;;;;;;;;;;;;;;;12.58;54.31;100195.34;5135233;27;19930;-74
2021/08/04 02:50:23;;;;;;;;;;;;;;;12.57;54.26;100196.31;5135450;27;19930;-74
2021/08/04 02:52:52;;;;;;;;;;;;;;;12.56;53.62;100192.03;5134898;27;19923;-75
2021/08/04 02:55:18;;;;;;;;;;;;;;;12.51;54.19;100188.06;5135413;27;19923;-74
2021/08/04 02:57:45;;;;;;;;;;;;;;;12.49;52.61;100196.03;5135287;27;19923;-74
2021/08/04 03:00:12;;;;;;;;;;;;;;;12.57;52.07;100200.69;5134690;27;19934;-74
2021/08/04 03:02:38;;;;;;;;;;;;;;;12.54;52.99;100203.53;5135201;27;19946;-74
2021/08/04 03:05:05;;;;;;;;;;;;;;;12.49;52.91;100205.66;5134501;27;19931;-74
2021/08/04 03:07:32;;;;;;;;;;;;;;;12.40;53.91;100209.72;5134808;27;19923;-75
2021/08/04 03:10:00;;;;;;;;;;;;;;;12.48;53.74;100203.97;5134461;27;19924;-74
2021/08/04 03:12:26;;;;;;;;;;;;;;;12.46;54.11;100217.13;5134682;27;20377;-74
2021/08/04 03:14:53;;;;;;;;;;;;;;;12.48;54.49;100214.41;5134691;27;19923;-75
2021/08/04 03:17:20;;;;;;;;;;;;;;;12.49;54.29;100210.88;5134685;27;20450;-74
2021/08/04 03:19:46;;;;;;;;;;;;;;;12.48;54.51;100220.44;5134599;27;19923;-75
2021/08/04 03:22:13;;;;;;;;;;;;;;;12.44;55.22;100220.78;5134578;27;20370;-75
2021/08/04 03:24:40;;;;;;;;;;;;;;;12.42;55.26;100224.31;5134788;27;19928;-75
2021/08/04 03:27:08;;;;;;;;;;;;;;;12.54;55.21;100232.25;5134472;27;19923;-75
2021/08/04 03:29:34;;;;;;;;;;;;;;;12.56;54.98;100223.34;5134343;27;19923;-74
2021/08/04 03:32:01;;;;;;;;;;;;;;;12.48;55.18;100227.44;5134183;27;19931;-75
2021/08/04 03:34:27;;;;;;;;;;;;;;;12.54;54.21;100232.25;5134655;27;19930;-75
2021/08/04 03:36:54;;;;;;;;;;;;;;;12.52;54.45;100231.50;5133964;27;19923;-74
2021/08/04 03:39:20;;;;;;;;;;;;;;;12.60;54.85;100234.41;5134235;27;20277;-75
2021/08/04 03:41:47;;;;;;;;;;;;;;;12.61;54.61;100243.88;5134618;27;19930;-76
2021/08/04 03:44:15;;;;;;;;;;;;;;;12.61;54.84;100236.06;5134181;27;19923;-76
2021/08/04 03:46:46;;;;;;;;;;;;;;;12.53;55.62;100248.81;5134423;27;19924;-76
2021/08/04 03:49:13;;;;;;;;;;;;;;;12.57;55.37;100251.09;5133853;27;19931;-76
2021/08/04 03:51:39;;;;;;;;;;;;;;;12.61;55.35;100255.19;5134322;27;19927;-75
2021/08/04 03:54:06;;;;;;;;;;;;;;;12.62;55.04;100256.00;5133897;27;19923;-74
2021/08/04 03:56:32;;;;;;;;;;;;;;;12.62;55.09;100256.84;5133983;27;20451;-72
2021/08/04 03:59:00;;;;;;;;;;;;;;;12.57;55.55;100253.72;5133777;27;19933;-72
2021/08/04 04:01:28;;;;;;;;;;;;;;;12.51;55.89;100264.59;5133878;27;19958;-73
2021/08/04 04:03:55;;;;;;;;;;;;;;;12.68;55.64;100267.78;5133580;27;19930;-72
2021/08/04 04:06:21;;;;;;;;;;;;;;;12.67;55.75;100269.56;5133827;27;19923;-72
2021/08/04 04:08:48;;;;;;;;;;;;;;;12.60;56.87;100263.94;5133447;27;20293;-72
2021/08/04 04:11:15;;;;;;;;;;;;;;;12.48;55.97;100274.41;5133935;27;19931;-72
2021/08/04 04:13:42;;;;;;;;;;;;;;;12.50;56.62;100273.34;5133965;27;19931;-72
2021/08/04 04:16:09;;;;;;;;;;;;;;;12.63;56.03;100283.75;5133313;27;19923;-77
2021/08/04 04:18:37;;;;;;;;;;;;;;;12.69;56.48;100277.25;5133501;27;20397;-76
2021/08/04 04:21:04;;;;;;;;;;;;;;;12.71;56.78;100280.59;5133295;27;20304;-76
2021/08/04 04:23:30;;;;;;;;;;;;;;;12.76;56.58;100283.72;5133376;27;19934;-77
2021/08/04 04:25:57;;;;;;;;;;;;;;;12.84;56.54;100284.84;5133575;27;19929;-76
2021/08/04 04:28:23;;;;;;;;;;;;;;;12.85;56.32;100294.34;5133657;27;19927;-74
2021/08/04 04:30:50;;;;;;;;;;;;;;;12.62;57.22;100282.09;5133236;27;20538;-75
2021/08/04 04:33:17;;;;;;;;;;;;;;;12.77;56.81;100293.25;5133677;28;19923;-76
2021/08/04 04:35:44;;;;;;;;;;;;;;;12.72;56.62;100287.50;5133416;28;19923;-76
2021/08/04 04:38:11;;;;;;;;;;;;;;;12.70;57.00;100289.38;5133135;28;19935;-75
2021/08/04 04:40:38;;;;;;;;;;;;;;;12.76;56.86;100296.78;5133566;28;20284;-72
2021/08/04 04:43:04;;;;;;;;;;;;;;;12.80;56.05;100293.84;5133123;28;19923;-76
2021/08/04 04:45:31;;;;;;;;;;;;;;;12.76;55.96;100305.44;5133567;28;19930;-75
2021/08/04 04:47:57;;;;;;;;;;;;;;;12.63;56.46;100302.03;5133083;28;19930;-76
2021/08/04 04:50:24;;;;;;;;;;;;;;;12.84;55.66;100305.75;5133276;28;20410;-76
2021/08/04 04:52:52;;;;;;;;;;;;;;;12.79;56.16;100313.06;5131247;28;20191;-76
2021/08/04 04:55:19;;;;;;;;;;;;;;;12.88;56.52;100313.34;5131928;28;20298;-76
2021/08/04 04:57:45;;;;;;;;;;;;;;;12.81;56.25;100320.78;5132286;28;19927;-77
2021/08/04 05:00:12;;;;;;;;;;;;;;;12.87;55.96;100320.34;5131710;28;19928;-77
2021/08/04 05:02:39;;;;;;;;;;;;;;;12.69;56.36;100332.94;5135406;27;19923;-75
2021/08/04 05:05:06;;;;;;;;;;;;;;;12.77;56.64;100337.63;5135689;27;19930;-75
2021/08/04 05:07:33;;;;;;;;;;;;;;;12.84;57.30;100334.47;5137062;27;20366;-74
2021/08/04 05:10:01;;;;;;;;;;;;;;;13.06;56.02;100335.53;5136862;27;19923;-74
2021/08/04 05:12:28;;;;;;;;;;;;;;;13.01;56.72;100345.47;5137084;27;20301;-75
2021/08/04 05:14:54;;;;;;;;;;;;;;;13.02;56.38;100340.16;5136779;27;20293;-75
2021/08/04 05:17:21;;;;;;;;;;;;;;;13.01;56.99;100348.91;5137016;27;19988;-75
2021/08/04 05:19:48;;;;;;;;;;;;;;;13.16;56.49;100349.59;5137092;27;19924;-77
2021/08/04 05:22:14;;;;;;;;;;;;;;;13.08;56.43;100349.31;5137204;27;20290;-75
2021/08/04 05:24:41;;;;;;;;;;;;;;;13.21;55.81;100357.94;5137200;27;19927;-74
2021/08/04 05:27:09;;;;;;;;;;;;;;;13.22;55.67;100356.97;5136609;27;19928;-74
2021/08/04 05:29:35;;;;;;;;;;;;;;;13.24;55.26;100355.09;5136858;27;19930;-77
2021/08/04 05:32:02;;;;;;;;;;;;;;;13.28;56.24;100369.66;5136778;27;19924;-77
2021/08/04 05:34:29;;;;;;;;;;;;;;;13.33;55.36;100358.84;5136975;27;19923;-77
2021/08/04 05:36:55;;;;;;;;;;;;;;;13.37;54.83;100362.06;5136791;27;19924;-76
2021/08/04 05:39:22;;;;;;;;;;;;;;;13.26;54.69;100374.13;5136717;27;19923;-77
2021/08/04 05:41:49;;;;;;;;;;;;;;;13.23;55.91;100379.56;5136368;27;19923;-76
2021/08/04 05:44:17;;;;;;;;;;;;;;;13.39;55.49;100374.09;5136768;27;19946;-77
2021/08/04 05:46:43;;;;;;;;;;;;;;;13.48;55.56;100378.63;5136725;27;19930;-77
2021/08/04 05:49:10;;;;;;;;;;;;;;;13.35;55.08;100377.84;5136465;27;20285;-77
2021/08/04 05:51:36;;;;;;;;;;;;;;;13.36;55.55;100387.38;5136704;27;19931;-77
2021/08/04 05:54:03;;;;;;;;;;;;;;;13.42;55.22;100394.75;5136063;27;19931;-77
2021/08/04 05:56:29;;;;;;;;;;;;;;;13.57;54.88;100392.81;5136268;27;20308;-77
2021/08/04 05:58:56;;;;;;;;;;;;;;;13.67;53.90;100395.59;5136332;27;19923;-77
2021/08/04 06:01:24;;;;;;;;;;;;;;;13.70;53.91;100406.66;5136127;27;19923;-77
2021/08/04 06:03:51;;;;;;;;;;;;;;;13.57;54.66;100413.72;5135738;27;20293;-75
2021/08/04 06:06:17;;;;;;;;;;;;;;;13.53;55.27;100417.50;5136377;27;19924;-75
2021/08/04 06:08:44;;;;;;;;;;;;;;;13.70;54.67;100426.72;5135978;27;19931;-75
2021/08/04 06:11:12;;;;;;;;;;;;;;;13.60;54.69;100421.34;5135807;27;20392;-75
2021/08/04 06:13:38;;;;;;;;;;;;;;;13.73;53.99;100434.34;5134743;27;19949;-75
2021/08/04 06:16:05;;;;;;;;;;;;;;;13.70;54.67;100431.97;5135892;27;19923;-75
2021/08/04 06:18:33;;;;;;;;;;;;;;;13.69;55.17;100432.88;5136085;27;19950;-75
2021/08/04 06:20:59;;;;;;;;;;;;;;;13.82;54.48;100431.06;5135893;27;19929;-75
2021/08/04 06:23:26;;;;;;;;;;;;;;;13.81;55.07;100441.63;5135808;27;19923;-75
2021/08/04 06:25:53;;;;;;;;;;;;;;;13.68;54.26;100442.53;5135481;27;20296;-77
2021/08/04 06:28:19;;;;;;;;;;;;;;;13.55;54.70;100441.75;5135842;27;19930;-77
2021/08/04 06:30:46;;;;;;;;;;;;;;;13.75;54.46;100449.94;5135595;27;20396;-77
2021/08/04 06:33:12;;;;;;;;;;;;;;;13.81;54.53;100441.63;5136063;27;19924;-75
2021/08/04 06:35:40;;;;;;;;;;;;;;;13.78;54.21;100454.94;5135340;27;19931;-76
2021/08/04 06:38:07;;;;;;;;;;;;;;;13.68;54.78;100446.91;5135785;27;19923;-76
2021/08/04 06:40:34;;;;;;;;;;;;;;;13.78;54.41;100453.16;5135492;27;19923;-76
2021/08/04 06:43:00;;;;;;;;;;;;;;;13.78;55.03;100455.75;5135078;27;19930;-76
2021/08/04 06:45:27;;;;;;;;;;;;;;;13.86;54.07;100456.03;5135663;27;20377;-76
2021/08/04 06:47:54;;;;;;;;;;;;;;;13.86;55.15;100460.44;5135265;27;19924;-76
2021/08/04 06:50:20;;;;;;;;;;;;;;;14.18;54.84;100476.38;5135177;27;20389;-76
2021/08/04 06:52:48;;;;;;;;;;;;;;;14.15;54.42;100474.81;5135111;27;19930;-76
2021/08/04 06:55:15;;;;;;;;;;;;;;;14.01;55.18;100475.00;5135077;27;19930;-76
2021/08/04 06:57:41;;;;;;;;;;;;;;;14.12;54.63;100482.88;5135121;27;20309;-76
2021/08/04 07:00:09;;;;;;;;;;;;;;;14.23;54.69;100474.25;5135122;27;19934;-76
2021/08/04 07:02:35;;;;;;;;;;;;;;;14.20;53.87;100487.53;5135025;27;19931;-76
2021/08/04 07:05:02;;;;;;;;;;;;;;;14.07;54.55;100476.31;5134525;27;20377;-76
2021/08/04 07:07:28;;;;;;;;;;;;;;;14.06;54.34;100491.19;5135233;27;19946;-76
2021/08/04 07:09:56;;;;;;;;;;;;;;;14.18;54.49;100485.97;5134816;27;19923;-76
2021/08/04 07:12:23;;;;;;;;;;;;;;;14.26;54.63;100492.34;5135016;27;19923;-76
2021/08/04 07:14:51;;;;;;;;;;;;;;;14.18;54.34;100485.97;5134518;27;19997;-76
2021/08/04 07:17:18;;;;;;;;;;;;;;;14.31;53.39;100492.81;5134646;27;19927;-76
2021/08/04 07:19:44;;;;;;;;;;;;;;;14.34;53.90;100494.38;5134669;27;19923;-76
2021/08/04 07:22:11;;;;;;;;;;;;;;;14.27;52.29;100501.00;5134590;27;19930;-76
2021/08/04 07:24:37;;;;;;;;;;;;;;;14.40;52.71;100507.00;5134325;27;19923;-76
2021/08/04 07:27:06;;;;;;;;;;;;;;;14.55;52.24;100489.34;5134639;27;19923;-76
2021/08/04 07:29:32;;;;;;;;;;;;;;;14.59;51.82;100515.19;5134255;27;19934;-76
2021/08/04 07:31:59;;;;;;;;;;;;;;;14.79;51.74;100512.81;5134521;27;19924;-76
2021/08/04 07:34:25;;;;;;;;;;;;;;;14.65;51.98;100511.25;5134444;27;19923;-76
2021/08/04 07:36:53;;;;;;;;;;;;;;;14.78;52.36;100521.63;5134486;27;19981;-76
2021/08/04 07:39:20;;;;;;;;;;;;;;;14.86;51.73;100521.88;5134279;27;19924;-76
2021/08/04 07:41:46;;;;;;;;;;;;;;;15.07;51.89;100519.38;5134477;27;19930;-76
2021/08/04 07:44:14;;;;;;;;;;;;;;;14.75;52.80;100529.72;5134022;27;19927;-76
2021/08/04 07:46:41;;;;;;;;;;;;;;;14.68;52.70;100529.34;5134149;27;19923;-76
2021/08/04 07:49:07;;;;;;;;;;;;;;;14.53;52.17;100531.31;5133834;27;20479;-76
2021/08/04 07:51:34;;;;;;;;;;;;;;;14.96;51.84;100535.09;5134368;27;19923;-76
2021/08/04 07:54:00;;;;;;;;;;;;;;;14.97;52.05;100531.53;5133691;27;19924;-76
2021/08/04 07:56:27;;;;;;;;;;;;;;;15.19;51.42;100538.56;5133940;27;20400;-76
2021/08/04 07:58:54;;;;;;;;;;;;;;;15.20;51.31;100545.47;5134059;27;19923;-76
2021/08/04 08:01:22;;;;;;;;;;;;;;;15.02;50.99;100547.72;5133919;27;20278;-76
2021/08/04 08:03:50;;;;;;;;;;;;;;;14.63;51.36;100548.97;5133364;27;19924;-76
2021/08/04 08:06:16;;;;;;;;;;;;;;;14.60;53.11;100547.41;5133773;27;19966;-76
2021/08/04 08:08:43;;;;;;;;;;;;;;;15.06;52.36;100541.31;5134138;27;20289;-76
2021/08/04 08:11:09;;;;;;;;;;;;;;;15.09;51.30;100543.69;5133755;27;19931;-76
2021/08/04 08:13:36;;;;;;;;;;;;;;;15.36;51.25;100543.34;5133755;27;19923;-76
2021/08/04 08:16:03;;;;;;;;;;;;;;;15.25;52.29;100554.63;5133745;27;19928;-76
2021/08/04 08:18:31;;;;;;;;;;;;;;;15.27;52.77;100551.91;5133864;27;19923;-76
2021/08/04 08:20:58;;;;;;;;;;;;;;;15.21;53.62;100563.69;5133328;27;20378;-76
2021/08/04 08:23:24;;;;;;;;;;;;;;;15.61;53.10;100554.50;5133560;27;19924;-76
2021/08/04 08:25:51;;;;;;;;;;;;;;;15.64;51.86;100568.22;5133368;27;20374;-76
2021/08/04 08:28:17;;;;;;;;;;;;;;;15.09;52.66;100564.63;5133780;27;19931;-76
2021/08/04 08:30:45;;;;;;;;;;;;;;;15.49;53.24;100574.66;5133778;27;19931;-77
2021/08/04 08:33:12;;;;;;;;;;;;;;;15.76;52.79;100578.69;5133148;27;19929;-76
2021/08/04 08:35:40;;;;;;;;;;;;;;;15.51;53.05;100585.00;5132984;27;19923;-76
2021/08/04 08:38:07;;;;;;;;;;;;;;;15.60;53.18;100576.44;5133222;28;20009;-76
2021/08/04 08:40:33;;;;;;;;;;;;;;;15.70;52.20;100584.44;5133456;28;20393;-76
2021/08/04 08:43:00;;;;;;;;;;;;;;;15.63;53.41;100594.53;5133457;28;19923;-77
2021/08/04 08:45:27;;;;;;;;;;;;;;;15.45;54.64;100589.78;5133395;28;19924;-77
2021/08/04 08:47:53;;;;;;;;;;;;;;;15.36;56.16;100594.91;5133150;28;19934;-76
2021/08/04 08:50:25;;;;;;;;;;;;;;;15.60;55.72;100593.00;5133396;28;19927;-76
2021/08/04 08:52:53;;;;;;;;;;;;;;;15.64;55.24;100594.44;5133023;28;19923;-76
2021/08/04 08:55:20;;;;;;;;;;;;;;;15.42;55.59;100597.88;5133102;28;20374;-76
2021/08/04 08:57:47;;;;;;;;;;;;;;;15.29;54.96;100606.84;5133082;28;19924;-76
2021/08/04 09:00:14;;;;;;;;;;;;;;;15.46;55.64;100606.34;5133252;28;19938;-76
2021/08/04 09:02:41;;;;;;;;;;;;;;;15.46;54.89;100603.72;5133207;28;19924;-76
2021/08/04 09:05:09;;;;;;;;;;;;;;;15.82;52.58;100607.88;5132828;28;20369;-76
2021/08/04 09:07:37;;;;;;;;;;;;;;;15.93;53.34;100614.06;5133223;28;19923;-76
2021/08/04 09:10:20;;;;;;;;;;;;;;;15.68;53.23;100610.75;5132727;28;19928;-76
2021/08/04 09:12:47;;;;;;;;;;;;;;;15.85;51.74;100610.28;5133024;28;19924;-76
2021/08/04 09:15:23;;;;;;;;;;;;;;;15.71;52.80;100612.34;5133078;28;19973;-76
2021/08/04 09:17:57;;;;;;;;;;;;;;;15.98;51.44;100623.28;5132912;28;19931;-76
2021/08/04 09:20:25;;;;;;;;;;;;;;;16.30;50.76;100612.78;5132976;28;19934;-76
2021/08/04 09:22:51;;;;;;;;;;;;;;;16.67;49.94;100617.66;5133056;28;19923;-76
2021/08/04 09:25:19;;;;;;;;;;;;;;;16.64;51.73;100623.16;5133323;28;19924;-76
2021/08/04 09:27:48;;;;;;;;;;;;;;;16.63;49.63;100631.16;5132966;28;19923;-75
2021/08/04 09:30:16;;;;;;;;;;;;;;;16.60;49.23;100623.56;5132965;28;19923;-75
2021/08/04 09:32:43;;;;;;;;;;;;;;;16.40;49.74;100630.44;5132866;28;19927;-75
2021/08/04 09:35:12;;;;;;;;;;;;;;;16.17;50.33;100632.28;5132872;28;19924;-75
2021/08/04 09:37:39;;;;;;;;;;;;;;;16.01;50.31;100632.69;5133088;28;20341;-75
2021/08/04 09:40:06;;;;;;;;;;;;;;;16.80;49.71;100638.53;5132757;28;19946;-75
2021/08/04 09:42:45;;;;;;;;;;;;;;;16.87;49.57;100644.91;5133003;28;19931;-75
2021/08/04 09:45:12;;;;;;;;;;;;;;;16.67;49.79;100638.69;5132511;28;19927;-75
2021/08/04 09:47:39;;;;;;;;;;;;;;;16.58;49.36;100647.31;5133788;27;20403;-75
2021/08/04 09:50:07;;;;;;;;;;;;;;;16.79;48.60;100649.16;5136367;27;19946;-75
2021/08/04 09:52:35;;;;;;;;;;;;;;;17.10;48.84;100650.88;5136388;27;19934;-75
2021/08/04 09:55:11;;;;;;;;;;;;;;;17.29;47.67;100660.69;5135796;27;20393;-75
2021/08/04 09:57:41;;;;;;;;;;;;;;;17.09;46.84;100657.09;5136342;27;19924;-75
2021/08/04 10:00:10;;;;;;;;;;;;;;;17.18;46.92;100672.09;5136319;27;19931;-75
2021/08/04 10:02:37;;;;;;;;;;;;;;;16.49;47.48;100654.16;5136150;27;20297;-75
2021/08/04 10:05:23;;;;;;;;;;;;;;;16.91;46.30;100663.91;5135665;27;20344;-75
2021/08/04 10:08:06;;;;;;;;;;;;;;;17.60;45.67;100674.69;5135744;27;19924;-75
2021/08/04 10:10:34;;;;;;;;;;;;;;;17.79;43.71;100676.59;5135968;27;19931;-75
2021/08/04 10:13:02;;;;;;;;;;;;;;;18.12;43.25;100669.34;5136047;27;20303;-75
2021/08/04 10:15:31;;;;;;;;;;;;;;;17.97;43.97;100673.31;5136197;27;19923;-76
2021/08/04 10:17:58;;;;;;;;;;;;;;;17.74;43.54;100670.84;5135958;27;19923;-75
2021/08/04 10:20:25;;;;;;;;;;;;;;;17.48;44.41;100672.28;5135883;27;19927;-76
2021/08/04 10:22:53;;;;;;;;;;;;;;;17.64;42.96;100680.50;5135463;27;20373;-75
2021/08/04 10:25:20;;;;;;;;;;;;;;;17.39;43.87;100690.50;5135789;27;19923;-75
2021/08/04 10:27:47;;;;;;;;;;;;;;;17.40;44.61;100686.91;5135703;27;19931;-76
2021/08/04 10:30:13;;;;;;;;;;;;;;;17.81;43.67;100687.00;5136592;27;19923;-75
2021/08/04 10:32:42;;;;;;;;;;;;;;;17.56;44.18;100696.94;5135826;27;19923;-76
2021/08/04 10:35:10;;;;;;;;;;;;;;;17.15;44.98;100698.66;5135257;27;19927;-76
2021/08/04 10:37:39;;;;;;;;;;;;;;;17.25;44.77;100705.78;5135355;27;19923;-76
2021/08/04 10:40:06;;;;;;;;;;;;;;;17.22;44.55;100708.66;5135144;27;20377;-76
2021/08/04 10:42:39;;;;;;;;;;;;;;;17.55;43.82;100705.00;5135262;27;20293;-76
2021/08/04 10:45:30;;;;;;;;;;;;;;;17.39;44.86;100714.19;5135199;27;19946;-76
2021/08/04 10:48:18;;;;;;;;;;;;;;;17.62;45.98;100716.63;5114283;27;19923;-76
2021/08/04 10:51:03;;;;;;;;;;;;;;;17.45;44.42;100725.13;5135029;27;20430;-76
2021/08/04 10:53:29;;;;;;;;;;;;;;;17.59;45.04;100727.41;5135383;27;19931;-76
2021/08/04 10:55:56;;;;;;;;;;;;;;;17.05;45.36;100733.72;5134742;27;19930;-76
2021/08/04 10:58:23;;;;;;;;;;;;;;;17.28;43.89;100731.81;5134941;27;19924;-76
2021/08/04 11:00:50;;;;;;;;;;;;;;;16.93;45.82;100725.06;5134033;27;19930;-76
2021/08/04 11:03:35;;;;;;;;;;;;;;;16.98;45.41;100728.97;5134737;27;19924;-76
2021/08/04 11:06:07;;;;;;;;;;;;;;;16.35;46.06;100727.13;5134941;27;19923;-76
2021/08/04 11:08:33;;;;;;;;;;;;;;;16.85;47.88;100738.84;5134832;27;20376;-76
2021/08/04 11:11:00;;;;;;;;;;;;;;;16.69;46.43;100738.34;5134823;27;19924;-76
2021/08/04 11:13:50;;;;;;;;;;;;;;;16.80;45.84;100746.25;5134296;27;20215;-76
2021/08/04 11:16:25;;;;;;;;;;;;;;;17.04;46.19;100737.31;5127723;27;19927;-76
2021/08/04 11:19:05;;;;;;;;;;;;;;;16.70;46.42;100742.66;5134717;27;20266;-76
2021/08/04 11:21:34;;;;;;;;;;;;;;;17.08;44.84;100746.59;5134493;27;20403;-76
2021/08/04 11:24:01;;;;;;;;;;;;;;;17.20;44.91;100748.22;5134376;27;20010;-76
2021/08/04 11:26:29;;;;;;;;;;;;;;;17.60;45.30;100750.97;5134495;27;20395;-76
2021/08/04 11:28:57;;;;;;;;;;;;;;;17.40;44.49;100747.38;5134290;27;19946;-77
2021/08/04 11:31:23;;;;;;;;;;;;;;;17.41;45.32;100754.31;5134618;27;20437;-77
2021/08/04 11:33:50;;;;;;;;;;;;;;;17.47;45.69;100754.75;5134343;27;19924;-77
2021/08/04 11:36:18;;;;;;;;;;;;;;;17.93;44.61;100750.88;5134479;27;19930;-77
2021/08/04 11:39:02;;;;;;;;;;;;;;;18.11;44.52;100754.56;5134138;27;19930;-77
2021/08/04 11:41:41;;;;;;;;;;;;;;;17.97;44.50;100758.38;5134206;27;20365;-77
2021/08/04 11:44:11;;;;;;;;;;;;;;;18.49;43.63;100761.72;5133748;27;19923;-77
2021/08/04 11:46:40;;;;;;;;;;;;;;;18.44;43.51;100752.56;5134298;27;19930;-77
2021/08/04 11:49:08;;;;;;;;;;;;;;;18.38;42.46;100759.22;5133935;27;20493;-77
2021/08/04 11:51:37;;;;;;;;;;;;;;;18.35;43.55;100756.84;5133837;27;19924;-77
2021/08/04 11:54:04;;;;;;;;;;;;;;;18.62;42.99;100758.84;5134006;27;19946;-77
2021/08/04 11:56:30;;;;;;;;;;;;;;;18.63;42.91;100762.34;5134151;27;19946;-77
2021/08/04 11:59:02;;;;;;;;;;;;;;;18.40;43.67;100764.38;5133694;27;19924;-77
2021/08/04 12:01:29;;;;;;;;;;;;;;;18.38;43.87;100776.81;5134118;27;19923;-77
2021/08/04 12:04:19;;;;;;;;;;;;;;;18.49;43.26;100771.44;5133520;27;19950;-77
2021/08/04 12:06:55;;;;;;;;;;;;;;;18.81;43.15;100766.00;5113186;27;20309;-77
2021/08/04 12:09:23;;;;;;;;;;;;;;;17.93;44.81;100778.06;5133990;27;19930;-77
2021/08/04 12:11:50;;;;;;;;;;;;;;;17.44;47.74;100778.69;5132799;27;19923;-77
2021/08/04 12:14:19;;;;;;;;;;;;;;;18.05;46.65;100794.56;5134015;27;20146;-77
2021/08/04 12:16:47;;;;;;;;;;;;;;;17.62;48.31;100788.53;5133815;27;19935;-78
2021/08/04 12:19:26;;;;;;;;;;;;;;;18.17;47.20;100782.16;5133510;27;19931;-78
2021/08/04 12:21:52;;;;;;;;;;;;;;;17.59;48.15;100790.56;5133693;27;19924;-78
2021/08/04 12:24:19;;;;;;;;;;;;;;;18.00;46.55;100784.44;5133735;27;19923;-78
2021/08/04 12:26:46;;;;;;;;;;;;;;;17.76;47.08;100799.66;5133778;27;19935;-77
2021/08/04 12:29:19;;;;;;;;;;;;;;;18.67;46.02;100800.59;5133393;27;19934;-78
2021/08/04 12:32:01;;;;;;;;;;;;;;;19.62;43.74;100810.50;5133555;27;19924;-78
2021/08/04 12:34:28;;;;;;;;;;;;;;;19.83;43.23;100806.88;5133697;28;19924;-78
2021/08/04 12:36:55;;;;;;;;;;;;;;;18.70;44.76;100802.97;5133415;28;19924;-78
2021/08/04 12:39:22;;;;;;;;;;;;;;;18.60;45.90;100805.59;5133600;28;19928;-78